Pamelia, New York
Current Conditions -  °F | °C
As of 2:58 PM on Thursday 29 Jan 2015 (Local Time) from KGTB Reporting Station
Clear Clear  
Wind Chill: -8°   Ceiling: Unl
Heat Index: -2°   Visibility: 10mi
Dew Point: -6°   Wind: 18mph
Humidity: 73%   Direction: 150°SSE
Pressure: 29.83"   Gusts: 29mph
Location:  44.0981°N, 75.8331°W
Report Text: KGTB 291958Z AUTO 15016G25KT 10SM CLR M01/M06 A2983 RMK AO2 PK WND 12030/40 UPB1923E1934 PRESFR SLP115 P0000 T10151058
Loading
Personal Weather Stations






























Interactive Weather Map New forecast layout! Learn more

10-Day Weather Forecast

Advertisements
Track Severe Weather on mobile